Realist — WDH6772 — position and weather

sailwx.info

Track history (hours):
 
Tides and Currents Weather Stations Pressure Air Temp Water Temp Dewpoint Dewpoint Depression Visibility Wind Speed Wind Dir Waves Ship Positions

Realist

Owner: New York Marine Towing, Inc PO Box 444 Montauk, NY 11954, monauk, NY. More information available from US FCC via Universal Licensing System and Coast Guard Vessel Documentation Center.

Last reported at 2017-Nov-27 20:37 UTC. Time now 2017-Dec-17 10:15 UTC.
Position N 25°34' W 080°05'.
Warning: this ship's position is 19 days out of date.

; draft 3.5 m.

Type: Towing. MMSI: 367641460.

Date/timePositionNaut miles runAvg speedWind from/ knotsBaromVisibWave heightAir tempDewpointWater temp
2017-Nov-27 20:37N 25°34' W 080°05'1 7.8
2017-Nov-27 20:29N 25°35' W 080°05'4 8.1
2017-Nov-27 20:00N 25°39' W 080°04'4 8.3
2017-Nov-27 19:30N 25°43' W 080°05'4 7.9
2017-Nov-27 19:01N 25°47' W 080°05'4 7.9
2017-Nov-27 18:31N 25°51' W 080°04'3 6.5
2017-Nov-27 18:00N 25°54' W 080°03'3 6.3
2017-Nov-27 17:30N 25°57' W 080°02'3 6.3
2017-Nov-27 17:00N 26°00' W 080°02'3 6.2
2017-Nov-27 16:30N 26°03' W 080°02'3 5.8
2017-Nov-27 16:00N 26°06' W 080°01'3 5.8
2017-Nov-27 15:30N 26°09' W 080°01'3 5.9
2017-Nov-27 15:00N 26°12' W 080°01'3 6.1
2017-Nov-27 14:30N 26°15' W 080°01'37 6.6
2017-Nov-27 08:58N 26°52' W 080°01'3 7.7
2017-Nov-27 08:30N 26°55' W 080°02'4 7.6
2017-Nov-27 08:00N 26°59' W 080°03'18 7.6
2017-Nov-27 05:41N 27°16' W 080°09'2 7.6
2017-Nov-27 05:26N 27°18' W 080°10'4 7.6
2017-Nov-27 04:58N 27°21' W 080°10'3 7.6
2017-Nov-27 04:30N 27°24' W 080°11'4 7.7
2017-Nov-27 04:01N 27°28' W 080°12'4 7.6
2017-Nov-27 03:30N 27°32' W 080°14'4 7.6
2017-Nov-27 03:00N 27°35' W 080°16'4 7.5
2017-Nov-27 02:30N 27°39' W 080°17'251 7.2
2017-Nov-25 15:46N 31°48' W 080°51'2 7.8
2017-Nov-25 15:30N 31°50' W 080°50'4 7.9
2017-Nov-25 15:00N 31°52' W 080°46'4 8.0
2017-Nov-25 14:30N 31°55' W 080°43'4 7.7
2017-Nov-25 14:00N 31°58' W 080°40'4 7.3
2017-Nov-25 13:30N 32°01' W 080°38'4 8.1
2017-Nov-25 13:01N 32°04' W 080°34'8 8.2
2017-Nov-25 12:00N 32°09' W 080°26'251 7.6
2017-Nov-24 02:46N 34°31' W 076°19'  
Track history (hours):
 
Tides and Currents Weather Stations Pressure Air Temp Water Temp Dewpoint Dewpoint Depression Visibility Wind Speed Wind Dir Waves Ship Positions

Realist

Owner: New York Marine Towing, Inc PO Box 444 Montauk, NY 11954, monauk, NY. More information available from US FCC via Universal Licensing System and Coast Guard Vessel Documentation Center.

Last reported at 2017-Nov-27 20:37 UTC. Time now 2017-Dec-17 10:15 UTC.
Position N 25°34' W 080°05'.
Warning: this ship's position is 19 days out of date.

; draft 3.5 m.

Type: Towing. MMSI: 367641460.

Date/timePositionNaut miles runAvg speedWind from/ knotsBaromVisibWave heightAir tempDewpointWater temp
2017-Nov-27 20:37N 25°34' W 080°05'1 7.8
2017-Nov-27 20:29N 25°35' W 080°05'4 8.1
2017-Nov-27 20:00N 25°39' W 080°04'4 8.3
2017-Nov-27 19:30N 25°43' W 080°05'4 7.9
2017-Nov-27 19:01N 25°47' W 080°05'4 7.9
2017-Nov-27 18:31N 25°51' W 080°04'3 6.5
2017-Nov-27 18:00N 25°54' W 080°03'3 6.3
2017-Nov-27 17:30N 25°57' W 080°02'3 6.3
2017-Nov-27 17:00N 26°00' W 080°02'3 6.2
2017-Nov-27 16:30N 26°03' W 080°02'3 5.8
2017-Nov-27 16:00N 26°06' W 080°01'3 5.8
2017-Nov-27 15:30N 26°09' W 080°01'3 5.9
2017-Nov-27 15:00N 26°12' W 080°01'3 6.1
2017-Nov-27 14:30N 26°15' W 080°01'37 6.6
2017-Nov-27 08:58N 26°52' W 080°01'3 7.7
2017-Nov-27 08:30N 26°55' W 080°02'4 7.6
2017-Nov-27 08:00N 26°59' W 080°03'18 7.6
2017-Nov-27 05:41N 27°16' W 080°09'2 7.6
2017-Nov-27 05:26N 27°18' W 080°10'4 7.6
2017-Nov-27 04:58N 27°21' W 080°10'3 7.6
2017-Nov-27 04:30N 27°24' W 080°11'4 7.7
2017-Nov-27 04:01N 27°28' W 080°12'4 7.6
2017-Nov-27 03:30N 27°32' W 080°14'4 7.6
2017-Nov-27 03:00N 27°35' W 080°16'4 7.5
2017-Nov-27 02:30N 27°39' W 080°17'251 7.2
2017-Nov-25 15:46N 31°48' W 080°51'2 7.8
2017-Nov-25 15:30N 31°50' W 080°50'4 7.9
2017-Nov-25 15:00N 31°52' W 080°46'4 8.0
2017-Nov-25 14:30N 31°55' W 080°43'4 7.7
2017-Nov-25 14:00N 31°58' W 080°40'4 7.3
2017-Nov-25 13:30N 32°01' W 080°38'4 8.1
2017-Nov-25 13:01N 32°04' W 080°34'8 8.2
2017-Nov-25 12:00N 32°09' W 080°26'251 7.6
2017-Nov-24 02:46N 34°31' W 076°19'  

Dump ship's entire track history